createdAt,value
2023-01-13T00:01:43.892Z,10.25
2023-01-13T00:06:45.634Z,10.14
2023-01-13T00:11:56.322Z,10.17
2023-01-13T00:16:58.267Z,10.24
2023-01-13T00:22:00.076Z,10.14
2023-01-13T00:27:01.857Z,10.01
2023-01-13T00:32:04.187Z,10.05
2023-01-13T00:37:06.593Z,10.00
2023-01-13T00:42:27.317Z,9.73
2023-01-13T00:47:29.114Z,9.55
2023-01-13T00:52:32.490Z,9.41
2023-01-13T00:57:34.357Z,9.46
2023-01-13T01:02:36.149Z,9.38
2023-01-13T01:07:37.921Z,9.33
2023-01-13T01:12:39.595Z,9.28
2023-01-13T01:17:41.282Z,9.09
2023-01-13T01:22:42.996Z,9.13
2023-01-13T01:27:44.687Z,9.23
2023-01-13T01:32:46.396Z,9.20
2023-01-13T01:37:48.057Z,9.30
2023-01-13T01:43:08.328Z,9.30
2023-01-13T01:48:11.237Z,9.37
2023-01-13T01:53:18.228Z,9.51
2023-01-13T01:58:29.140Z,9.42
2023-01-13T02:03:31.548Z,9.56
2023-01-13T02:08:33.441Z,9.66
2023-01-13T02:13:35.523Z,9.69
2023-01-13T02:18:58.374Z,9.84
2023-01-13T02:24:56.772Z,9.95
2023-01-13T02:30:32.553Z,9.91
2023-01-13T02:35:52.846Z,9.77
2023-01-13T02:41:20.653Z,9.91
2023-01-13T02:46:33.789Z,10.00
2023-01-13T02:51:38.788Z,10.07
2023-01-13T02:56:44.378Z,10.12
2023-01-13T03:01:47.723Z,10.17
2023-01-13T03:07:28.004Z,10.14
2023-01-13T03:12:47.064Z,10.03
2023-01-13T03:17:53.774Z,10.11
2023-01-13T03:23:13.392Z,10.34
2023-01-13T03:28:25.457Z,10.14
2023-01-13T03:33:33.301Z,10.23
2023-01-13T03:38:45.424Z,10.33
2023-01-13T03:44:27.323Z,10.26
2023-01-13T03:49:49.713Z,10.31
2023-01-13T03:54:59.137Z,10.46
2023-01-13T04:00:04.029Z,10.34
2023-01-13T04:05:14.618Z,10.49
2023-01-13T04:10:22.510Z,10.34
2023-01-13T04:15:28.107Z,10.22
2023-01-13T04:20:29.852Z,10.41
2023-01-13T04:25:31.820Z,10.34
2023-01-13T04:30:34.122Z,10.14
2023-01-13T04:35:36.861Z,10.20
2023-01-13T04:40:39.743Z,10.24
2023-01-13T04:45:42.527Z,10.27
2023-01-13T04:50:44.705Z,10.36
2023-01-13T04:55:47.904Z,10.44
2023-01-13T05:00:53.092Z,10.33
2023-01-13T05:05:55.077Z,10.44
2023-01-13T05:11:00.417Z,10.38
2023-01-13T05:16:22.229Z,10.49
2023-01-13T05:21:42.508Z,10.25
2023-01-13T05:26:44.679Z,10.42
2023-01-13T05:31:46.299Z,10.51
2023-01-13T05:36:47.996Z,10.50
2023-01-13T05:42:08.588Z,10.40
2023-01-13T05:47:10.586Z,10.42
2023-01-13T05:52:12.280Z,10.47
2023-01-13T05:57:14.108Z,10.41
2023-01-13T06:02:15.753Z,10.35
2023-01-13T06:07:17.459Z,10.43
2023-01-13T06:12:19.940Z,10.33
2023-01-13T06:17:22.113Z,10.16
2023-01-13T06:22:27.231Z,10.26
2023-01-13T06:27:29.899Z,10.31
2023-01-13T06:32:41.064Z,10.42
2023-01-13T06:37:45.017Z,10.41
2023-01-13T06:43:05.235Z,10.40
2023-01-13T06:48:07.407Z,10.38
2023-01-13T06:53:09.922Z,10.39
2023-01-13T06:58:11.748Z,10.45
2023-01-13T07:03:15.965Z,10.42
2023-01-13T07:08:17.747Z,10.44
2023-01-13T07:13:38.011Z,10.34
2023-01-13T07:18:39.803Z,10.51
2023-01-13T07:23:41.858Z,10.57
2023-01-13T07:28:43.643Z,10.54
2023-01-13T07:33:45.435Z,10.54
2023-01-13T07:38:47.299Z,10.47
2023-01-13T07:43:49.161Z,10.30
2023-01-13T07:48:50.842Z,10.23
2023-01-13T07:53:52.605Z,10.26
2023-01-13T07:58:54.501Z,10.27
2023-01-13T08:03:56.373Z,10.13
2023-01-13T08:08:58.767Z,10.09
2023-01-13T08:14:00.470Z,10.09
2023-01-13T08:19:02.200Z,10.36
2023-01-13T08:24:04.013Z,10.30
2023-01-13T08:29:05.757Z,10.36
2023-01-13T08:34:07.507Z,10.27
2023-01-13T08:39:09.146Z,10.49
2023-01-13T08:44:10.852Z,10.61
2023-01-13T08:49:12.731Z,10.49
2023-01-13T08:54:14.413Z,10.54
2023-01-13T08:59:18.212Z,10.58
2023-01-13T09:04:23.122Z,10.73
2023-01-13T09:09:27.589Z,10.88
2023-01-13T09:14:32.776Z,10.89
2023-01-13T09:19:35.289Z,10.82
2023-01-13T09:24:37.006Z,9.57
2023-01-13T09:29:38.634Z,8.33
2023-01-13T09:34:58.868Z,7.91
2023-01-13T09:40:01.109Z,7.79
2023-01-13T09:45:08.247Z,7.61
2023-01-13T09:50:20.583Z,7.62
2023-01-13T09:55:36.924Z,7.73
2023-01-13T10:01:03.749Z,7.76
2023-01-13T10:06:13.536Z,7.98
2023-01-13T10:11:39.939Z,8.07
2023-01-13T10:16:45.973Z,8.25
2023-01-13T10:22:08.452Z,8.39
2023-01-13T10:27:37.198Z,8.27
2023-01-13T10:32:41.681Z,8.26
2023-01-13T10:37:57.137Z,8.31
2023-01-13T10:43:08.688Z,8.32
2023-01-13T10:48:16.554Z,8.41
2023-01-13T10:53:23.802Z,8.43
2023-01-13T10:58:26.022Z,8.34
2023-01-13T11:03:36.929Z,8.53
2023-01-13T11:08:45.223Z,8.61
2023-01-13T11:14:09.199Z,8.55
2023-01-13T11:19:18.307Z,8.64
2023-01-13T11:24:53.033Z,8.47
2023-01-13T11:30:17.552Z,8.35
2023-01-13T11:35:21.714Z,8.46
2023-01-13T11:40:34.376Z,9.13
2023-01-13T11:45:53.696Z,8.97
2023-01-13T11:51:13.883Z,8.81
2023-01-13T11:56:40.511Z,8.61
2023-01-13T12:01:57.195Z,8.65
2023-01-13T12:07:22.770Z,8.68
2023-01-13T12:12:39.254Z,8.64
2023-01-13T12:17:52.532Z,8.85
2023-01-13T12:23:02.158Z,9.19
2023-01-13T12:28:11.821Z,10.04
2023-01-13T12:33:52.374Z,10.18
2023-01-13T12:39:04.015Z,9.59
2023-01-13T12:44:17.726Z,9.46
2023-01-13T12:49:22.480Z,9.21
2023-01-13T12:54:45.051Z,9.12
2023-01-13T13:00:09.918Z,9.20
2023-01-13T13:05:14.736Z,9.21
2023-01-13T13:10:30.189Z,9.08
2023-01-13T13:15:36.499Z,9.03
2023-01-13T13:21:02.253Z,9.06
2023-01-13T13:26:29.800Z,9.02
2023-01-13T13:31:50.256Z,8.96
2023-01-13T13:37:21.745Z,8.99
2023-01-13T13:42:45.397Z,9.09
2023-01-13T13:47:47.376Z,8.91
2023-01-13T13:52:58.900Z,8.94
2023-01-13T13:58:01.697Z,9.04
2023-01-13T14:03:08.006Z,8.93
2023-01-13T14:08:13.165Z,9.02
2023-01-13T14:13:20.777Z,8.92
2023-01-13T14:18:22.952Z,8.96
2023-01-13T14:23:34.185Z,8.98
2023-01-13T14:28:38.352Z,8.94
2023-01-13T14:33:48.889Z,8.79
2023-01-13T14:39:05.723Z,8.78
2023-01-13T14:44:34.204Z,8.66
2023-01-13T14:49:41.468Z,8.62
2023-01-13T14:54:46.768Z,8.75
2023-01-13T15:00:14.670Z,8.69
2023-01-13T15:05:19.228Z,8.61
2023-01-13T15:10:27.354Z,8.46
2023-01-13T15:15:32.866Z,8.27
2023-01-13T15:20:34.503Z,7.37
2023-01-13T15:25:38.674Z,6.94
2023-01-13T15:30:40.360Z,6.49
2023-01-13T15:35:44.855Z,6.26
2023-01-13T15:40:47.671Z,6.25
2023-01-13T15:46:07.816Z,6.06
2023-01-13T15:51:11.926Z,5.88
2023-01-13T15:56:24.540Z,6.00
2023-01-13T16:01:26.417Z,5.91
2023-01-13T16:06:34.629Z,5.89
2023-01-13T16:11:36.403Z,5.85
2023-01-13T16:16:38.131Z,5.88
2023-01-13T16:21:40.523Z,5.83
2023-01-13T16:26:42.295Z,5.78
2023-01-13T16:31:44.134Z,5.65
2023-01-13T16:36:46.413Z,5.91
2023-01-13T16:41:48.716Z,6.13
2023-01-13T16:46:50.480Z,6.63
2023-01-13T16:51:52.189Z,6.60
2023-01-13T16:56:53.938Z,6.74
2023-01-13T17:01:55.720Z,7.00
2023-01-13T17:07:00.528Z,6.88
2023-01-13T17:12:02.591Z,6.86
2023-01-13T17:17:07.720Z,6.83
2023-01-13T17:22:09.399Z,6.75
2023-01-13T17:27:11.989Z,6.83
2023-01-13T17:32:21.057Z,7.00
2023-01-13T17:37:22.804Z,6.89
2023-01-13T17:42:27.917Z,6.95
2023-01-13T17:47:29.883Z,6.99
2023-01-13T17:52:31.642Z,6.95
2023-01-13T17:57:35.508Z,7.06
2023-01-13T18:02:37.245Z,7.08
2023-01-13T18:07:38.990Z,7.20
2023-01-13T18:12:40.760Z,7.30
2023-01-13T18:17:42.553Z,7.03
2023-01-13T18:23:02.844Z,6.88
2023-01-13T18:28:05.061Z,7.00
2023-01-13T18:33:06.844Z,6.92
2023-01-13T18:38:11.361Z,7.04
2023-01-13T18:43:13.227Z,7.23
2023-01-13T18:48:16.178Z,7.32
2023-01-13T18:53:17.922Z,7.30
2023-01-13T18:58:20.480Z,7.41
2023-01-13T19:03:29.993Z,7.41
2023-01-13T19:08:33.616Z,7.50
2023-01-13T19:13:36.669Z,7.48
2023-01-13T19:18:38.531Z,7.49
2023-01-13T19:23:40.390Z,7.42
2023-01-13T19:28:42.294Z,7.48
2023-01-13T19:33:44.041Z,7.41
2023-01-13T19:38:45.840Z,7.32
2023-01-13T19:44:06.070Z,7.39
2023-01-13T19:49:08.217Z,7.45
2023-01-13T19:54:09.997Z,7.33
2023-01-13T19:59:13.530Z,7.30
2023-01-13T20:04:17.165Z,7.34
2023-01-13T20:09:18.945Z,7.28
2023-01-13T20:14:21.195Z,7.39
2023-01-13T20:19:22.917Z,7.32
2023-01-13T20:24:26.129Z,7.34
2023-01-13T20:29:28.691Z,7.21
2023-01-13T20:34:30.736Z,7.19
2023-01-13T20:39:33.685Z,7.24
2023-01-13T20:44:35.730Z,7.30
2023-01-13T20:49:37.398Z,7.14
2023-01-13T20:54:40.951Z,7.08
2023-01-13T20:59:43.205Z,7.19
2023-01-13T21:04:45.084Z,7.05
2023-01-13T21:09:47.006Z,7.09
2023-01-13T21:15:07.093Z,6.95
2023-01-13T21:20:11.301Z,6.95
2023-01-13T21:25:13.327Z,7.00
2023-01-13T21:30:17.024Z,7.10
2023-01-13T21:35:18.955Z,7.06
2023-01-13T21:40:21.416Z,7.20
2023-01-13T21:45:41.779Z,7.19
2023-01-13T21:50:43.607Z,7.41
2023-01-13T21:55:51.534Z,7.22
2023-01-13T22:00:54.163Z,7.41
2023-01-13T22:05:56.586Z,7.20
2023-01-13T22:10:58.681Z,7.19
2023-01-13T22:16:04.595Z,7.01
2023-01-13T22:21:06.608Z,7.02
2023-01-13T22:26:08.656Z,7.00
2023-01-13T22:31:12.316Z,6.90
2023-01-13T22:36:15.218Z,6.92
2023-01-13T22:41:16.887Z,6.71
2023-01-13T22:46:18.611Z,6.77
2023-01-13T22:51:22.673Z,6.81
2023-01-13T22:56:25.723Z,6.82
2023-01-13T23:01:32.200Z,6.88
2023-01-13T23:06:34.630Z,7.06
2023-01-13T23:11:36.839Z,7.10
2023-01-13T23:16:40.562Z,7.13
2023-01-13T23:21:42.255Z,7.21
2023-01-13T23:26:44.078Z,7.08
2023-01-13T23:31:47.259Z,6.95
2023-01-13T23:36:49.139Z,7.01
2023-01-13T23:41:51.049Z,6.96
2023-01-13T23:46:53.503Z,6.92
2023-01-13T23:51:55.171Z,6.85
2023-01-13T23:56:57.399Z,6.79
